Time;durP1;ratioP1;P1;durP2;ratioP2;P2;SDS_P1;SDS_P2;PMS_P1;PMS_P2;Temp;Humidity;BMP_temperature;BMP_pressure;BME280_temperature;BME280_humidity;BME280_pressure;Samples;Min_cycle;Max_cycle;Signal;HPM_P1;HPM_P2
2021/05/15 00:00:22;;;;;;;3.78;2.33;;;;;;;12.04;63.66;99330.91;4392647;32;34257;-85
2021/05/15 00:02:49;;;;;;;4.35;2.50;;;;;;;12.04;63.50;99328.25;4379773;32;32014;-84
2021/05/15 00:05:15;;;;;;;2.55;2.28;;;;;;;12.00;63.56;99324.09;4384296;32;34800;-85
2021/05/15 00:07:42;;;;;;;2.35;2.15;;;;;;;12.00;63.63;99326.72;4379347;32;34175;-85
2021/05/15 00:10:09;;;;;;;3.08;2.45;;;;;;;11.93;63.92;99327.19;4379035;32;34471;-85
2021/05/15 00:12:36;;;;;;;2.60;2.28;;;;;;;11.97;63.79;99331.37;4392194;32;34421;-85
2021/05/15 00:15:04;;;;;;;2.75;2.47;;;;;;;11.95;63.81;99327.94;4392342;32;34097;-84
2021/05/15 00:17:31;;;;;;;2.87;2.22;;;;;;;11.97;64.05;99329.56;4393049;32;33072;-83
2021/05/15 00:19:57;;;;;;;5.25;2.75;;;;;;;11.85;64.18;99324.97;4392778;32;33687;-83
2021/05/15 00:22:24;;;;;;;4.75;3.45;;;;;;;11.76;64.43;99325.44;4392574;32;33462;-83
2021/05/15 00:24:51;;;;;;;6.80;3.70;;;;;;;11.79;64.58;99335.84;4368132;32;32261;-83
2021/05/15 00:27:17;;;;;;;12.20;3.40;;;;;;;11.86;65.10;99336.38;4380089;32;31952;-83
2021/05/15 00:29:44;;;;;;;3.25;2.25;;;;;;;12.16;63.70;99323.22;4377478;32;34708;-83
2021/05/15 00:32:16;;;;;;;5.75;2.22;;;;;;;11.96;63.64;99327.88;4380770;32;33441;-83
2021/05/15 00:34:43;;;;;;;3.00;2.00;;;;;;;11.97;63.36;99321.63;4377504;32;33639;-83
2021/05/15 00:37:09;;;;;;;3.35;2.25;;;;;;;12.03;62.57;99318.62;4391014;32;33762;-83
2021/05/15 00:39:36;;;;;;;5.03;2.70;;;;;;;11.74;63.58;99322.03;4392439;32;34896;-83
2021/05/15 00:42:03;;;;;;;3.78;2.80;;;;;;;11.69;63.61;99317.00;4392667;32;34695;-84
2021/05/15 00:44:45;;;;;;;4.03;3.15;;;;;;;11.67;63.75;99315.37;4378948;32;34183;-84
2021/05/15 00:47:13;;;;;;;5.68;3.37;;;;;;;11.72;63.61;99321.25;4391712;32;33495;-85
2021/05/15 00:49:40;;;;;;;3.50;3.20;;;;;;;11.56;64.33;99329.19;4389839;32;33406;-84
2021/05/15 00:52:07;;;;;;;3.97;3.58;;;;;;;11.54;64.88;99331.94;4391523;32;34264;-84
2021/05/15 00:54:39;;;;;;;3.87;3.47;;;;;;;11.64;64.96;99331.44;4366207;32;34102;-84
2021/05/15 00:57:07;;;;;;;5.53;3.50;;;;;;;11.60;64.91;99330.75;4391659;32;33806;-84
2021/05/15 00:59:35;;;;;;;3.80;3.40;;;;;;;11.58;64.87;99329.09;4390890;32;34168;-84
2021/05/15 01:02:02;;;;;;;3.70;3.40;;;;;;;11.49;65.00;99339.28;4379238;32;34597;-84
2021/05/15 01:04:29;;;;;;;6.45;3.78;;;;;;;11.56;65.04;99329.19;4390372;32;35366;-85
2021/05/15 01:06:57;;;;;;;3.97;3.50;;;;;;;11.59;64.92;99333.47;4392717;32;33749;-85
2021/05/15 01:09:24;;;;;;;5.47;3.47;;;;;;;11.66;64.67;99338.31;4392253;32;34258;-85
2021/05/15 01:15:40;;;;;;;5.10;2.78;;;;;;;11.63;64.94;99337.63;4377515;32;35545;-86
2021/05/15 01:18:06;;;;;;;4.72;3.30;;;;;;;11.66;65.01;99332.19;4357156;32;35066;-86
2021/05/15 01:24:56;;;;;;;3.72;2.90;;;;;;;11.70;64.56;99331.09;4380778;32;34692;-84
2021/05/15 01:27:23;;;;;;;4.32;3.08;;;;;;;11.67;64.33;99332.09;4363655;32;33623;-84
2021/05/15 01:29:51;;;;;;;4.25;2.92;;;;;;;11.67;64.45;99331.25;4375618;32;33822;-84
2021/05/15 01:32:18;;;;;;;5.12;3.00;;;;;;;11.49;64.67;99330.50;4352556;32;34295;-84
2021/05/15 01:34:44;;;;;;;3.35;3.05;;;;;;;11.58;64.29;99326.47;4372840;32;34865;-84
2021/05/15 01:37:12;;;;;;;4.22;3.25;;;;;;;11.59;64.27;99322.91;4388251;32;34571;-84
2021/05/15 01:39:38;;;;;;;4.18;3.10;;;;;;;11.50;64.83;99324.25;4390461;32;32896;-85
2021/05/15 01:42:05;;;;;;;3.28;2.95;;;;;;;11.47;65.50;99324.41;4377512;32;34385;-85
2021/05/15 01:44:32;;;;;;;3.85;3.20;;;;;;;11.56;65.21;99329.19;4377230;32;34830;-85
2021/05/15 01:46:58;;;;;;;3.75;2.78;;;;;;;11.62;64.93;99323.56;4377683;32;33328;-85
2021/05/15 01:49:25;;;;;;;4.40;3.30;;;;;;;11.42;65.04;99321.19;4377295;32;33148;-85
2021/05/15 01:51:52;;;;;;;3.75;3.35;;;;;;;11.56;64.77;99323.06;4377505;32;33770;-85
2021/05/15 01:54:18;;;;;;;6.47;3.47;;;;;;;11.60;64.80;99324.59;4364751;32;34214;-85
2021/05/15 01:56:45;;;;;;;4.05;3.28;;;;;;;11.59;64.72;99313.19;4377284;32;35002;-85
2021/05/15 01:59:21;;;;;;;5.85;3.45;;;;;;;11.61;64.72;99318.38;4366748;32;33842;-84
2021/05/15 02:01:48;;;;;;;3.92;3.62;;;;;;;11.60;64.83;99314.87;4388321;32;35576;-84
2021/05/15 02:04:15;;;;;;;3.75;3.35;;;;;;;11.66;64.93;99314.53;4379781;32;34174;-84
2021/05/15 02:06:41;;;;;;;3.67;3.33;;;;;;;11.61;65.21;99313.09;4378817;32;34311;-84
2021/05/15 02:09:08;;;;;;;3.40;3.10;;;;;;;11.72;64.33;99319.47;4379378;32;33880;-83
2021/05/15 02:11:35;;;;;;;4.53;3.25;;;;;;;11.53;64.68;99310.84;4391665;32;33604;-84
2021/05/15 02:14:02;;;;;;;3.45;3.15;;;;;;;11.49;64.63;99312.84;4391925;32;34052;-84
2021/05/15 02:16:29;;;;;;;3.70;3.40;;;;;;;11.61;64.20;99305.16;4378578;32;33079;-84
2021/05/15 02:18:55;;;;;;;3.90;3.00;;;;;;;11.53;64.20;99308.22;4391836;32;33604;-83
2021/05/15 02:21:22;;;;;;;4.15;3.65;;;;;;;11.48;64.14;99308.47;4391109;32;34869;-83
2021/05/15 02:23:50;;;;;;;5.05;3.47;;;;;;;11.46;64.18;99307.69;4391209;32;35714;-83
2021/05/15 02:26:16;;;;;;;6.95;3.92;;;;;;;11.52;64.27;99302.06;4391157;32;34157;-83
2021/05/15 02:28:43;;;;;;;3.97;3.58;;;;;;;11.45;64.50;99298.06;4390437;32;33463;-83
2021/05/15 02:31:10;;;;;;;5.10;3.67;;;;;;;11.49;64.48;99302.25;4376885;32;31944;-83
2021/05/15 02:33:36;;;;;;;3.97;3.35;;;;;;;11.52;64.27;99301.22;4391243;32;33750;-85
2021/05/15 02:36:03;;;;;;;4.40;4.00;;;;;;;11.21;64.92;99304.72;4391653;32;33907;-85
2021/05/15 02:38:30;;;;;;;4.32;3.92;;;;;;;11.28;64.55;99303.41;4378906;32;33563;-85
2021/05/15 02:40:56;;;;;;;5.90;3.47;;;;;;;11.27;65.01;99307.00;4379008;32;34833;-85
2021/05/15 02:43:23;;;;;;;4.65;3.45;;;;;;;11.39;64.62;99308.97;4378646;32;35267;-85
2021/05/15 02:45:49;;;;;;;3.80;3.47;;;;;;;11.24;64.59;99315.94;4391778;32;33715;-85
2021/05/15 02:48:16;;;;;;;4.25;3.85;;;;;;;11.21;64.55;99315.28;4389106;32;34068;-85
2021/05/15 02:50:48;;;;;;;7.82;3.40;;;;;;;11.27;64.59;99312.28;4378795;32;34695;-85
2021/05/15 02:53:15;;;;;;;3.95;3.55;;;;;;;11.38;63.92;99317.84;4378598;32;34643;-85
2021/05/15 02:55:41;;;;;;;4.30;3.50;;;;;;;11.25;64.51;99319.44;4366068;32;33431;-85
2021/05/15 02:58:08;;;;;;;5.05;3.70;;;;;;;11.11;64.85;99316.69;4378370;32;34331;-85
2021/05/15 03:00:35;;;;;;;4.30;3.58;;;;;;;11.26;64.27;99318.53;4378545;32;35430;-84
2021/05/15 03:03:01;;;;;;;3.72;3.37;;;;;;;11.11;64.77;99317.56;4379044;32;34396;-85
2021/05/15 03:05:29;;;;;;;4.72;3.85;;;;;;;11.43;63.84;99322.87;4378676;32;35346;-85
2021/05/15 03:07:56;;;;;;;5.47;3.30;;;;;;;11.29;64.08;99321.81;4390801;32;33632;-85
2021/05/15 03:10:24;;;;;;;8.32;3.90;;;;;;;11.05;64.97;99317.00;4391214;32;34691;-85
2021/05/15 03:12:52;;;;;;;5.03;4.20;;;;;;;11.04;65.23;99321.44;4391123;32;33898;-85
2021/05/15 03:15:21;;;;;;;4.97;4.15;;;;;;;11.00;65.62;99325.19;4391023;32;34204;-85
2021/05/15 03:17:48;;;;;;;5.62;3.90;;;;;;;10.87;65.89;99318.84;4378296;32;33820;-85
2021/05/15 03:20:17;;;;;;;4.43;3.70;;;;;;;11.00;65.35;99325.19;4391219;32;33335;-84
2021/05/15 03:22:47;;;;;;;4.45;3.92;;;;;;;11.03;65.24;99331.16;4365791;32;34288;-84
2021/05/15 03:25:15;;;;;;;4.37;3.97;;;;;;;10.91;65.54;99326.53;4378030;32;34078;-83
2021/05/15 03:27:41;;;;;;;5.95;4.40;;;;;;;11.03;64.99;99325.88;4391706;32;33840;-84
2021/05/15 03:30:09;;;;;;;4.78;3.95;;;;;;;11.16;64.71;99330.53;4392712;32;32483;-84
2021/05/15 03:32:37;;;;;;;4.57;4.10;;;;;;;11.25;64.82;99327.38;4380365;32;34881;-84
2021/05/15 03:35:04;;;;;;;6.35;4.00;;;;;;;11.16;65.07;99333.16;4367333;32;35801;-85
2021/05/15 03:37:31;;;;;;;4.85;4.35;;;;;;;10.92;66.31;99330.91;4393385;32;33135;-84
2021/05/15 03:40:01;;;;;;;4.18;3.53;;;;;;;11.13;65.67;99328.03;4392381;32;33652;-84
2021/05/15 03:42:28;;;;;;;4.80;3.97;;;;;;;11.48;64.04;99326.97;4379675;32;34807;-83
2021/05/15 03:44:55;;;;;;;4.87;3.90;;;;;;;11.65;63.20;99333.13;4377449;32;34370;-83
2021/05/15 03:47:21;;;;;;;4.65;4.25;;;;;;;11.78;62.74;99326.22;4379628;32;33821;-83
2021/05/15 03:49:48;;;;;;;5.22;4.60;;;;;;;11.76;63.71;99323.66;4392572;32;33662;-83
2021/05/15 03:52:15;;;;;;;5.30;4.03;;;;;;;11.68;63.92;99325.00;4381486;32;33730;-83
2021/05/15 03:54:42;;;;;;;5.20;4.70;;;;;;;11.28;65.64;99325.41;4391389;32;32604;-83
2021/05/15 03:57:08;;;;;;;5.15;4.47;;;;;;;11.17;66.34;99321.66;4379879;32;33088;-83
2021/05/15 03:59:35;;;;;;;5.65;3.90;;;;;;;11.23;66.59;99330.09;4392431;32;33628;-84
2021/05/15 04:02:02;;;;;;;5.37;4.32;;;;;;;11.46;65.83;99318.28;4392490;32;33287;-84
2021/05/15 04:04:29;;;;;;;5.68;3.58;;;;;;;11.69;65.20;99329.38;4379515;32;35604;-84
2021/05/15 04:06:55;;;;;;;5.82;4.10;;;;;;;11.97;64.59;99329.56;4380262;32;33702;-84
2021/05/15 04:09:22;;;;;;;6.18;4.47;;;;;;;12.20;63.97;99327.38;4392765;32;34721;-84
2021/05/15 04:11:48;;;;;;;5.30;4.68;;;;;;;12.30;64.76;99336.50;4377270;32;34661;-84
2021/05/15 04:14:40;;;;;;;5.72;4.12;;;;;;;12.36;65.16;99336.16;4377259;32;35561;-84
2021/05/15 04:19:34;;;;;;;5.40;4.20;;;;;;;12.77;64.02;99330.19;4392048;32;34081;-84
2021/05/15 04:22:01;;;;;;;6.55;4.30;;;;;;;12.79;64.71;99329.16;4392723;32;33922;-84
2021/05/15 04:24:29;;;;;;;5.72;4.40;;;;;;;12.95;64.42;99331.72;4392800;32;34780;-84
2021/05/15 04:26:57;;;;;;;5.40;4.82;;;;;;;13.28;63.92;99335.94;4390202;32;33470;-84
2021/05/15 04:29:25;;;;;;;7.03;4.72;;;;;;;13.38;64.16;99336.19;4383312;32;34500;-84
2021/05/15 04:31:54;;;;;;;6.93;4.68;;;;;;;13.52;64.41;99334.38;4353596;32;32454;-84
2021/05/15 04:34:20;;;;;;;5.35;4.40;;;;;;;13.67;64.40;99331.72;4362728;32;34932;-85
2021/05/15 04:36:47;;;;;;;4.97;4.47;;;;;;;13.73;64.37;99337.50;4377709;32;33604;-85
2021/05/15 04:39:14;;;;;;;5.37;4.55;;;;;;;13.90;64.08;99328.44;4391550;32;33520;-85
2021/05/15 04:41:40;;;;;;;6.50;5.05;;;;;;;14.21;63.42;99329.94;4377533;32;34299;-83
2021/05/15 04:44:07;;;;;;;5.40;4.15;;;;;;;14.32;63.97;99326.56;4393112;32;33519;-83
2021/05/15 04:46:34;;;;;;;5.90;3.92;;;;;;;14.40;63.95;99326.91;4366707;32;33579;-83
2021/05/15 04:49:01;;;;;;;6.37;4.37;;;;;;;14.48;64.14;99332.59;4391536;32;33623;-83
2021/05/15 04:51:27;;;;;;;4.72;4.22;;;;;;;14.67;62.98;99328.69;4375378;32;34511;-83
2021/05/15 04:53:54;;;;;;;5.18;4.28;;;;;;;14.73;62.63;99325.63;4368239;32;32744;-83
2021/05/15 04:56:21;;;;;;;4.85;4.45;;;;;;;14.69;62.67;99326.78;4392647;32;33263;-84
2021/05/15 04:58:47;;;;;;;5.87;4.90;;;;;;;14.64;63.21;99324.44;4372071;32;35049;-84
2021/05/15 05:01:14;;;;;;;4.95;4.43;;;;;;;14.66;63.49;99319.00;4377549;32;34680;-84
2021/05/15 05:03:40;;;;;;;4.75;4.25;;;;;;;14.64;63.31;99319.12;4377084;32;34963;-84
2021/05/15 05:06:07;;;;;;;5.95;5.15;;;;;;;14.55;64.20;99319.75;4379713;32;33131;-84
2021/05/15 05:08:33;;;;;;;4.97;4.45;;;;;;;14.64;64.10;99318.28;4391783;32;34205;-85
2021/05/15 05:11:00;;;;;;;11.50;4.95;;;;;;;14.83;63.67;99326.69;4366841;32;35136;-84
2021/05/15 05:13:26;;;;;;;12.35;5.18;;;;;;;14.74;64.54;99327.31;4391843;32;34517;-84
2021/05/15 05:15:53;;;;;;;5.72;5.12;;;;;;;14.80;65.07;99335.72;4392041;32;33515;-85
2021/05/15 05:18:19;;;;;;;6.07;5.47;;;;;;;15.25;63.02;99330.84;4378505;32;33935;-85
2021/05/15 05:20:46;;;;;;;6.70;5.85;;;;;;;15.58;62.55;99340.91;4363782;32;34712;-84
2021/05/15 05:23:12;;;;;;;6.37;5.53;;;;;;;15.74;62.95;99337.16;4364944;32;34791;-85
2021/05/15 05:25:39;;;;;;;4.62;4.10;;;;;;;15.90;62.90;99337.72;4390312;32;34020;-85
2021/05/15 05:28:06;;;;;;;5.65;4.28;;;;;;;16.04;62.55;99336.72;4370956;32;34302;-84
2021/05/15 05:30:33;;;;;;;3.33;3.03;;;;;;;16.00;62.30;99338.78;4379673;32;33759;-84
2021/05/15 05:33:00;;;;;;;3.10;2.80;;;;;;;16.08;61.14;99341.72;4379322;32;35556;-84
2021/05/15 05:35:27;;;;;;;3.33;3.03;;;;;;;16.12;59.47;99337.84;4386528;32;34986;-84
2021/05/15 05:37:54;;;;;;;4.82;4.28;;;;;;;16.48;59.00;99346.75;4376831;32;34610;-84
2021/05/15 05:40:20;;;;;;;5.57;3.85;;;;;;;16.82;60.27;99342.41;4378236;32;34682;-85
2021/05/15 05:42:47;;;;;;;5.35;3.45;;;;;;;16.92;60.14;99344.38;4378585;32;34707;-85
2021/05/15 05:45:15;;;;;;;3.85;3.30;;;;;;;16.94;58.51;99339.75;4379357;32;33298;-85
2021/05/15 05:47:41;;;;;;;5.55;3.37;;;;;;;16.91;57.57;99343.50;4394330;32;34572;-85
2021/05/15 05:50:10;;;;;;;3.97;3.30;;;;;;;16.96;57.55;99349.34;4391204;32;33462;-85
2021/05/15 05:52:38;;;;;;;6.87;3.12;;;;;;;17.01;56.72;99339.16;4391980;32;32915;-84
2021/05/15 05:55:06;;;;;;;5.10;3.62;;;;;;;17.05;57.45;99337.97;4390587;32;33158;-84
2021/05/15 05:57:33;;;;;;;3.85;2.70;;;;;;;17.17;56.54;99346.81;4376263;32;33340;-84
2021/05/15 06:00:00;;;;;;;4.57;2.97;;;;;;;17.28;57.14;99343.28;4390092;32;34658;-84
2021/05/15 06:02:27;;;;;;;3.87;3.53;;;;;;;17.29;56.16;99343.19;4374798;32;35363;-84
2021/05/15 06:04:53;;;;;;;7.57;3.70;;;;;;;17.30;57.17;99344.03;4374572;32;32642;-84
2021/05/15 06:07:20;;;;;;;5.45;2.90;;;;;;;17.29;57.06;99345.03;4376250;32;34258;-84
2021/05/15 06:09:46;;;;;;;2.60;2.40;;;;;;;17.18;57.21;99347.66;4388598;32;33178;-84
2021/05/15 06:12:14;;;;;;;3.50;2.42;;;;;;;17.74;57.16;99337.00;4363879;32;32439;-84
2021/05/15 06:14:41;;;;;;;3.22;2.87;;;;;;;18.05;54.75;99340.72;4376767;32;33267;-84
2021/05/15 06:17:07;;;;;;;2.55;2.08;;;;;;;18.34;53.46;99349.00;4379020;32;34028;-84
2021/05/15 06:19:34;;;;;;;2.12;1.87;;;;;;;18.57;52.46;99345.25;4378571;32;34776;-84
2021/05/15 06:22:01;;;;;;;2.47;1.65;;;;;;;18.78;52.38;99344.44;4392079;32;34715;-85
2021/05/15 06:24:27;;;;;;;1.65;1.27;;;;;;;19.07;51.91;99342.78;4391584;32;33049;-85
2021/05/15 06:26:54;;;;;;;2.40;1.60;;;;;;;19.19;49.91;99340.91;4391438;32;33662;-85
2021/05/15 06:29:20;;;;;;;2.97;1.25;;;;;;;19.48;49.52;99335.69;4391421;32;34654;-85
2021/05/15 06:31:47;;;;;;;2.17;1.50;;;;;;;19.88;49.56;99332.16;4391160;32;33802;-85
2021/05/15 06:34:13;;;;;;;1.77;1.67;;;;;;;20.18;48.43;99334.78;4389729;32;31468;-86
2021/05/15 06:36:40;;;;;;;2.47;1.62;;;;;;;19.86;47.89;99334.16;4379290;32;34867;-84
2021/05/15 06:39:06;;;;;;;2.37;1.95;;;;;;;20.11;46.51;99327.41;4391337;32;34729;-84
2021/05/15 06:41:33;;;;;;;2.33;1.48;;;;;;;20.33;46.89;99331.69;4392413;32;34717;-84
2021/05/15 06:44:00;;;;;;;1.52;1.10;;;;;;;19.99;46.77;99329.38;4379027;32;34324;-84
2021/05/15 06:46:26;;;;;;;2.17;1.65;;;;;;;20.26;44.79;99330.53;4378922;32;33253;-84
2021/05/15 06:48:53;;;;;;;1.33;1.12;;;;;;;20.42;45.89;99330.84;4363852;32;34189;-84
2021/05/15 06:51:19;;;;;;;2.03;1.15;;;;;;;20.44;45.15;99327.00;4363807;32;35166;-84
2021/05/15 06:53:46;;;;;;;1.58;1.20;;;;;;;20.81;44.73;99325.47;4378625;32;34338;-84
2021/05/15 06:56:12;;;;;;;2.60;1.20;;;;;;;20.81;46.25;99330.84;4387601;32;33781;-87
2021/05/15 06:58:41;;;;;;;1.60;1.10;;;;;;;20.84;45.37;99319.78;4375205;32;35561;-86
2021/05/15 07:01:08;;;;;;;3.78;1.30;;;;;;;20.79;44.33;99325.59;4375501;32;32540;-88
2021/05/15 07:03:35;;;;;;;2.10;1.25;;;;;;;20.90;42.75;99314.72;4377331;32;31550;-87
2021/05/15 07:06:03;;;;;;;1.83;1.10;;;;;;;21.16;44.01;99325.66;4375428;32;34400;-88
2021/05/15 07:08:30;;;;;;;1.52;1.37;;;;;;;21.30;43.48;99320.81;4374274;32;31958;-88
2021/05/15 07:10:58;;;;;;;3.45;1.10;;;;;;;21.41;41.46;99316.16;4365494;32;33471;-91
2021/05/15 07:13:26;;;;;;;5.55;1.27;;;;;;;21.32;42.69;99316.19;4375961;32;34861;-90
2021/05/15 07:15:52;;;;;;;3.00;1.45;;;;;;;21.19;42.80;99325.38;4366564;32;35080;-90
2021/05/15 07:18:20;;;;;;;2.03;1.35;;;;;;;20.91;43.35;99326.28;4376447;32;32903;-87
2021/05/15 07:20:46;;;;;;;1.70;1.08;;;;;;;21.11;42.74;99330.59;4366399;32;34618;-89
2021/05/15 07:23:13;;;;;;;3.08;0.95;;;;;;;21.21;41.87;99327.91;4385510;32;33213;-89
2021/05/15 07:25:40;;;;;;;1.60;1.02;;;;;;;21.11;43.15;99327.09;4373574;32;35788;-89
2021/05/15 07:28:06;;;;;;;2.75;1.58;;;;;;;21.40;42.53;99332.38;4375815;32;33438;-88
2021/05/15 07:30:33;;;;;;;1.98;1.23;;;;;;;21.01;43.24;99321.75;4392528;32;34571;-88
2021/05/15 07:33:01;;;;;;;1.35;1.08;;;;;;;21.35;43.31;99326.62;4367477;32;34788;-87
2021/05/15 07:35:28;;;;;;;1.08;0.98;;;;;;;21.48;41.12;99335.19;4372630;32;34391;-88
2021/05/15 07:37:54;;;;;;;2.20;1.17;;;;;;;21.60;40.47;99328.66;4379574;32;34063;-87
2021/05/15 07:40:22;;;;;;;2.65;1.48;;;;;;;20.99;41.33;99331.78;4392366;32;34629;-87
2021/05/15 07:42:48;;;;;;;1.67;1.00;;;;;;;21.14;42.57;99340.22;4388392;32;33023;-87
2021/05/15 07:45:15;;;;;;;4.30;1.20;;;;;;;21.43;41.47;99340.16;4380045;32;34164;-87
2021/05/15 07:47:43;;;;;;;1.02;0.75;;;;;;;21.56;39.06;99343.38;4392504;32;31720;-87
2021/05/15 07:50:10;;;;;;;1.87;1.05;;;;;;;21.76;39.10;99348.62;4380398;32;34067;-87
2021/05/15 07:52:37;;;;;;;1.33;1.00;;;;;;;21.77;37.84;99340.41;4379893;32;34007;-87
2021/05/15 07:55:08;;;;;;;2.42;1.15;;;;;;;21.78;39.40;99339.41;4377602;32;34308;-87
2021/05/15 07:57:35;;;;;;;1.20;1.08;;;;;;;21.45;40.74;99338.16;4377655;32;34689;-85
2021/05/15 08:00:04;;;;;;;1.70;1.20;;;;;;;21.87;41.63;99341.22;4367948;32;34264;-88
2021/05/15 08:02:41;;;;;;;1.77;1.42;;;;;;;21.79;39.25;99332.19;4365216;32;34588;-88
2021/05/15 08:05:09;;;;;;;2.00;1.10;;;;;;;22.09;42.33;99342.62;4365900;32;34574;-87
2021/05/15 08:07:37;;;;;;;3.08;1.40;;;;;;;22.36;41.01;99331.03;4353806;32;34709;-93
2021/05/15 08:10:08;;;;;;;2.62;1.42;;;;;;;22.04;38.38;99320.75;4372358;32;35614;-88
2021/05/15 08:12:36;;;;;;;2.45;1.35;;;;;;;22.13;39.46;99325.25;4363174;32;32633;-88
2021/05/15 08:15:06;;;;;;;1.70;1.35;;;;;;;22.30;38.43;99337.00;4403756;32;34146;-87
2021/05/15 08:17:36;;;;;;;1.70;1.12;;;;;;;22.51;37.63;99328.63;4380041;32;33078;-88
2021/05/15 08:20:06;;;;;;;6.32;1.10;;;;;;;22.47;36.21;99333.47;4380190;32;33118;-88
2021/05/15 08:22:33;;;;;;;1.20;1.00;;;;;;;22.28;38.05;99327.41;4390546;32;33716;-88
2021/05/15 08:24:59;;;;;;;1.50;1.20;;;;;;;22.10;38.53;99335.41;4377737;32;34354;-88
2021/05/15 08:27:26;;;;;;;2.08;1.27;;;;;;;21.67;39.72;99335.09;4379915;32;34273;-88
2021/05/15 08:29:53;;;;;;;1.30;1.20;;;;;;;22.41;39.71;99338.63;4379724;32;34386;-88
2021/05/15 08:32:20;;;;;;;2.80;1.52;;;;;;;22.09;42.39;99334.56;4379600;32;32907;-88
2021/05/15 08:34:47;;;;;;;1.98;1.00;;;;;;;21.82;38.46;99337.28;4371541;32;32697;-89
2021/05/15 08:37:13;;;;;;;1.30;1.20;;;;;;;22.21;39.57;99327.16;4377288;32;34232;-88
2021/05/15 08:39:40;;;;;;;2.97;1.90;;;;;;;21.39;40.36;99341.44;4376728;32;33915;-89
2021/05/15 08:42:07;;;;;;;2.10;1.23;;;;;;;21.39;40.09;99338.75;4377699;32;32693;-90
2021/05/15 08:44:36;;;;;;;1.42;1.20;;;;;;;21.85;38.62;99331.63;4363493;32;34210;-90
2021/05/15 08:47:02;;;;;;;2.30;1.30;;;;;;;21.93;40.60;99331.69;4390037;32;33725;-90
2021/05/15 08:49:30;;;;;;;2.12;1.50;;;;;;;21.70;41.94;99334.81;4392561;32;33659;-90
2021/05/15 08:51:56;;;;;;;1.62;1.20;;;;;;;21.85;39.54;99327.09;4378505;32;33763;-90
2021/05/15 08:54:23;;;;;;;1.73;1.30;;;;;;;22.08;40.53;99322.13;4372525;32;93131;-90
2021/05/15 08:56:51;;;;;;;2.22;1.20;;;;;;;22.54;38.58;99317.53;4368212;32;36009;-90
2021/05/15 08:59:17;;;;;;;2.28;1.50;;;;;;;22.90;37.82;99315.69;4379689;32;33351;-90
2021/05/15 09:01:45;;;;;;;2.72;1.40;;;;;;;22.85;36.95;99315.28;4390559;32;31024;-88
2021/05/15 09:04:12;;;;;;;4.97;1.75;;;;;;;22.83;38.33;99311.88;4360651;32;32718;-92
2021/05/15 09:06:41;;;;;;;2.60;1.80;;;;;;;22.81;37.47;99313.91;4376913;32;32331;-91
2021/05/15 09:09:09;;;;;;;5.25;1.50;;;;;;;23.36;35.64;99312.75;4377976;32;32267;-88
2021/05/15 09:11:37;;;;;;;1.55;1.30;;;;;;;22.73;36.76;99303.91;4377349;32;33005;-88
2021/05/15 09:14:20;;;;;;;2.33;1.65;;;;;;;23.47;36.55;99310.62;4376433;32;33676;-93
2021/05/15 09:16:50;;;;;;;1.40;1.30;;;;;;;23.41;36.39;99305.03;4390834;32;33172;-90
2021/05/15 09:19:26;;;;;;;1.30;1.02;;;;;;;23.20;36.00;99303.56;4367301;32;33148;-88
2021/05/15 09:22:02;;;;;;;0.90;0.88;;;;;;;23.02;36.16;99300.09;4372011;32;32556;-90
2021/05/15 09:24:40;;;;;;;14.43;2.65;;;;;;;22.53;36.60;99305.09;4388229;32;33264;-88
2021/05/15 09:27:11;;;;;;;1.33;0.73;;;;;;;23.21;36.03;99301.72;4378469;32;32757;-87
2021/05/15 09:29:47;;;;;;;1.05;0.80;;;;;;;23.37;32.66;99298.28;4377227;32;33405;-87
2021/05/15 09:32:29;;;;;;;1.05;0.82;;;;;;;23.28;34.76;99301.94;4375290;32;33807;-86
2021/05/15 09:34:57;;;;;;;;;;;;;;;23.67;34.12;99305.84;4373741;32;34321;-87
2021/05/15 09:37:37;;;;;;;1.75;1.10;;;;;;;23.31;33.55;99298.91;4375828;32;35180;-88
2021/05/15 09:40:16;;;;;;;2.50;1.15;;;;;;;22.97;34.55;99308.66;4380712;32;33049;-89
2021/05/15 09:43:04;;;;;;;1.35;1.08;;;;;;;22.74;36.76;99302.94;4375730;32;32237;-88
2021/05/15 09:45:35;;;;;;;0.77;0.77;;;;;;;22.89;36.49;99299.69;4375195;32;33293;-88
2021/05/15 09:48:04;;;;;;;1.30;1.00;;;;;;;22.70;35.65;99295.31;4376212;32;34818;-88
2021/05/15 09:50:35;;;;;;;1.52;1.00;;;;;;;23.31;34.36;99293.53;4393553;32;33548;-88
2021/05/15 09:53:11;;;;;;;1.20;1.10;;;;;;;23.35;35.13;99295.72;4380472;32;32874;-86
2021/05/15 09:55:41;;;;;;;1.67;0.95;;;;;;;22.77;35.85;99290.13;4386567;32;33232;-87
2021/05/15 09:58:10;;;;;;;2.03;1.27;;;;;;;22.51;37.61;99300.87;4389989;32;33799;-91
2021/05/15 10:00:49;;;;;;;2.15;1.30;;;;;;;22.17;37.53;99302.44;4358914;32;33288;-93
2021/05/15 10:03:47;;;;;;;2.87;1.58;;;;;;;22.18;37.53;99296.03;4359535;32;33743;-92
2021/05/15 10:06:52;;;;;;;1.70;1.08;;;;;;;22.67;37.56;99295.62;4351232;32;33045;-93
2021/05/15 10:09:31;;;;;;;2.55;1.45;;;;;;;22.88;36.75;99296.12;4348546;32;34134;-90
2021/05/15 10:12:33;;;;;;;1.65;1.30;;;;;;;22.60;38.66;99295.41;4325880;33;36135;-89
2021/05/15 10:15:08;;;;;;;1.52;1.42;;;;;;;22.45;38.14;99302.31;4307766;33;33884;-92
2021/05/15 10:17:37;;;;;;;5.15;1.50;;;;;;;22.67;37.24;99291.09;4329412;33;34197;-89
2021/05/15 10:20:07;;;;;;;1.50;1.23;;;;;;;23.09;37.51;99290.38;4318050;33;31857;-88
2021/05/15 10:22:40;;;;;;;2.10;1.15;;;;;;;23.37;38.03;99291.03;4329395;33;34389;-90
2021/05/15 10:25:15;;;;;;;4.37;1.33;;;;;;;23.30;36.49;99283.75;4340539;32;32404;-92
2021/05/15 10:27:43;;;;;;;1.58;1.33;;;;;;;23.41;35.86;99284.34;4315140;33;32841;-88
2021/05/15 10:30:17;;;;;;;1.52;0.80;;;;;;;23.50;33.97;99283.38;4337929;32;34257;-90
2021/05/15 10:32:53;;;;;;;;;;;;;;;23.05;34.25;99283.63;4369618;32;33767;-89
2021/05/15 10:35:38;;;;;;;2.95;0.80;;;;;;;23.62;34.20;99286.59;4360977;32;31153;-89
2021/05/15 10:38:10;;;;;;;2.80;0.95;;;;;;;22.79;35.46;99282.75;4352579;32;34066;-89
2021/05/15 10:40:49;;;;;;;5.43;1.20;;;;;;;22.90;36.46;99280.69;4361030;32;35175;-89
2021/05/15 10:43:49;;;;;;;2.75;1.02;;;;;;;22.66;35.30;99278.63;4367674;32;33728;-89
2021/05/15 10:46:22;;;;;;;1.27;0.65;;;;;;;22.88;35.04;99279.97;4355152;32;32086;-89
2021/05/15 10:49:03;;;;;;;0.88;0.60;;;;;;;22.70;34.39;99281.88;4372694;32;35238;-89
2021/05/15 10:51:41;;;;;;;2.28;0.90;;;;;;;21.52;35.26;99272.13;4346681;32;35182;-89
2021/05/15 10:54:14;;;;;;;1.02;0.65;;;;;;;23.05;32.82;99267.47;4359720;32;33667;-89
2021/05/15 10:56:50;;;;;;;1.30;0.98;;;;;;;22.68;35.23;99271.22;4361172;32;33479;-89
2021/05/15 10:59:20;;;;;;;0.80;0.60;;;;;;;22.39;34.80;99268.81;4372631;32;35263;-89
2021/05/15 11:01:51;;;;;;;1.25;1.10;;;;;;;23.03;35.63;99260.56;4377098;32;34077;-89
2021/05/15 11:04:53;;;;;;;0.65;0.65;;;;;;;22.98;33.40;99255.66;4379193;32;34233;-89
2021/05/15 11:07:22;;;;;;;4.68;1.35;;;;;;;23.48;34.84;99255.72;4375260;32;34305;-88
2021/05/15 11:10:05;;;;;;;0.80;0.77;;;;;;;22.85;34.67;99260.59;4387888;32;35524;-89
2021/05/15 11:12:45;;;;;;;0.90;0.70;;;;;;;23.11;34.23;99261.44;4367616;32;34682;-89
2021/05/15 11:15:18;;;;;;;0.57;0.55;;;;;;;23.54;35.96;99251.53;4380554;32;33887;-89
2021/05/15 11:18:04;;;;;;;2.22;0.70;;;;;;;23.49;34.22;99248.47;4377717;32;33111;-89
2021/05/15 11:20:45;;;;;;;2.55;0.90;;;;;;;23.56;32.43;99249.53;4374902;32;33102;-89
2021/05/15 11:23:18;;;;;;;1.35;0.70;;;;;;;23.46;32.05;99238.87;4368506;32;36097;-89
2021/05/15 11:25:54;;;;;;;1.20;0.75;;;;;;;23.55;33.36;99245.16;4368718;32;34461;-89
2021/05/15 11:28:24;;;;;;;1.12;0.90;;;;;;;23.11;35.23;99241.75;4367847;32;33318;-89
2021/05/15 11:30:52;;;;;;;1.00;0.60;;;;;;;23.89;32.84;99236.16;4368897;32;33949;-89
2021/05/15 11:33:22;;;;;;;2.00;0.62;;;;;;;24.16;32.25;99235.84;4373131;32;34408;-92
2021/05/15 11:36:05;;;;;;;6.10;0.70;;;;;;;24.39;32.57;99232.50;4366702;32;34489;-93
2021/05/15 11:38:59;;;;;;;2.10;0.60;;;;;;;24.31;34.22;99232.47;4350400;32;34007;-92
2021/05/15 11:41:39;;;;;;;2.78;0.80;;;;;;;24.16;34.10;99230.44;4390408;32;34404;-95
2021/05/15 11:44:22;;;;;;;1.35;0.70;;;;;;;24.35;34.50;99226.56;4371895;32;34084;-94
2021/05/15 11:47:07;;;;;;;4.12;0.90;;;;;;;25.02;29.76;99216.37;4401565;32;34002;-93
2021/05/15 11:50:10;;;;;;;1.30;1.20;;;;;;;25.07;31.27;99218.59;4402774;32;20178;-93
2021/05/15 11:53:01;;;;;;;1.17;1.02;;;;;;;25.03;31.78;99214.53;4368458;32;32808;-93
2021/05/15 11:55:44;;;;;;;2.00;1.30;;;;;;;24.42;31.40;99211.44;4348443;32;34408;-92